Time;durP1;ratioP1;P1;durP2;ratioP2;P2;SDS_P1;SDS_P2;PMS_P1;PMS_P2;Temp;Humidity;BMP_temperature;BMP_pressure;BME280_temperature;BME280_humidity;BME280_pressure;Samples;Min_cycle;Max_cycle;Signal;HPM_P1;HPM_P2
2022/11/09 00:00:22;;;;;;;;;;;;;;;;;;10589924;28;19969;-65
2022/11/09 00:05:24;;;;;;;;;;;;;;;;;;10589046;28;20386;-65
2022/11/09 00:10:27;;;;;;;;;;;;;;;;;;10589039;28;19923;-65
2022/11/09 00:15:29;;;;;;;;;;;;;;;;;;10589480;28;19928;-65
2022/11/09 00:20:31;;;;;;;;;;;;;;;;;;10588495;28;20272;-65
2022/11/09 00:25:33;;;;;;;;;;;;;;;;;;10588955;28;20007;-65
2022/11/09 00:30:35;;;;;;;;;;;;;;;;;;10588191;28;20329;-65
2022/11/09 00:35:37;;;;;;;;;;;;;;;;;;10588737;28;19928;-64
2022/11/09 00:40:39;;;;;;;;;;;;;;;;;;10569657;28;20383;-64
2022/11/09 00:45:41;;;;;;;;;;;;;;;;;;10588178;28;19953;-65
2022/11/09 00:50:43;;;;;;;;;;;;;;;;;;10588057;28;19949;-65
2022/11/09 00:55:45;;;;;;;;;;;;;;;;;;10587768;28;19924;-64
2022/11/09 01:00:47;;;;;;;;;;;;;;;;;;10586886;28;20251;-65
2022/11/09 01:05:49;;;;;;;;;;;;;;;;;;10585802;28;19927;-65
2022/11/09 01:10:51;;;;;;;;;;;;;;;;;;10587235;28;19928;-65
2022/11/09 01:15:53;;;;;;;;;;;;;;;;;;10586967;28;19924;-65
2022/11/09 01:20:55;;;;;;;;;;;;;;;;;;10586641;28;19924;-65
2022/11/09 01:25:58;;;;;;;;;;;;;;;;;;10585979;28;19969;-65
2022/11/09 01:31:00;;;;;;;;;;;;;;;;;;10586430;28;19976;-65
2022/11/09 01:36:02;;;;;;;;;;;;;;;;;;10586154;28;19969;-65
2022/11/09 01:41:05;;;;;;;;;;;;;;;;;;10585920;28;19923;-65
2022/11/09 01:46:07;;;;;;;;;;;;;;;;;;10585149;28;19923;-65
2022/11/09 01:51:09;;;;;;;;;;;;;;;;;;10585172;28;19924;-65
2022/11/09 01:56:11;;;;;;;;;;;;;;;;;;10585386;28;19977;-65
2022/11/09 02:01:13;;;;;;;;;;;;;;;;;;10584971;28;19924;-66
2022/11/09 02:06:16;;;;;;;;;;;;;;;;;;10584964;28;19924;-65
2022/11/09 02:11:18;;;;;;;;;;;;;;;;;;10584739;28;19977;-65
2022/11/09 02:16:20;;;;;;;;;;;;;;;;;;10583840;28;20036;-65
2022/11/09 02:21:22;;;;;;;;;;;;;;;;;;10583650;28;20407;-65
2022/11/09 02:26:24;;;;;;;;;;;;;;;;;;10584137;28;19949;-65
2022/11/09 02:31:26;;;;;;;;;;;;;;;;;;10583307;28;20386;-65
2022/11/09 02:36:28;;;;;;;;;;;;;;;;;;10583790;28;19924;-65
2022/11/09 02:41:30;;;;;;;;;;;;;;;;;;10583549;28;19924;-65
2022/11/09 02:46:32;;;;;;;;;;;;;;;;;;10582765;28;20335;-64
2022/11/09 02:51:34;;;;;;;;;;;;;;;;;;10583282;28;19972;-65
2022/11/09 02:56:36;;;;;;;;;;;;;;;;;;10583129;28;19924;-65
2022/11/09 03:01:38;;;;;;;;;;;;;;;;;;10582618;28;19923;-65
2022/11/09 03:06:41;;;;;;;;;;;;;;;;;;10582969;28;20299;-65
2022/11/09 03:11:43;;;;;;;;;;;;;;;;;;10582041;28;19932;-65
2022/11/09 03:16:45;;;;;;;;;;;;;;;;;;10582626;28;19924;-64
2022/11/09 03:21:51;;;;;;;;;;;;;;;;;;10581907;28;20290;-65
2022/11/09 03:26:53;;;;;;;;;;;;;;;;;;10585816;28;19972;-64
2022/11/09 03:31:55;;;;;;;;;;;;;;;;;;10591168;28;19923;-65
2022/11/09 03:36:57;;;;;;;;;;;;;;;;;;10590949;28;19976;-65
2022/11/09 03:41:59;;;;;;;;;;;;;;;;;;10590240;28;19977;-64
2022/11/09 03:47:01;;;;;;;;;;;;;;;;;;10590010;28;19977;-64
2022/11/09 03:52:03;;;;;;;;;;;;;;;;;;10590561;28;19969;-64
2022/11/09 03:57:05;;;;;;;;;;;;;;;;;;10589494;28;19973;-64
2022/11/09 04:02:07;;;;;;;;;;;;;;;;;;10589725;28;19928;-65
2022/11/09 04:07:09;;;;;;;;;;;;;;;;;;10571149;28;19970;-65
2022/11/09 04:12:11;;;;;;;;;;;;;;;;;;10588993;28;20030;-65
2022/11/09 04:17:13;;;;;;;;;;;;;;;;;;10588673;28;19969;-64
2022/11/09 04:22:15;;;;;;;;;;;;;;;;;;10589381;28;19969;-64
2022/11/09 04:27:17;;;;;;;;;;;;;;;;;;10588991;28;19928;-64
2022/11/09 04:32:19;;;;;;;;;;;;;;;;;;10588980;28;19924;-64
2022/11/09 04:37:21;;;;;;;;;;;;;;;;;;10586537;28;20374;-64
2022/11/09 04:42:23;;;;;;;;;;;;;;;;;;10588467;28;19969;-64
2022/11/09 04:47:25;;;;;;;;;;;;;;;;;;10588058;28;19927;-65
2022/11/09 04:52:28;;;;;;;;;;;;;;;;;;10587385;28;20333;-65
2022/11/09 04:57:30;;;;;;;;;;;;;;;;;;10568970;28;19945;-64
2022/11/09 05:02:32;;;;;;;;;;;;;;;;;;10586749;28;19931;-65
2022/11/09 05:07:34;;;;;;;;;;;;;;;;;;10569226;28;19976;-64
2022/11/09 05:12:36;;;;;;;;;;;;;;;;;;10586580;28;19924;-65
2022/11/09 05:17:38;;;;;;;;;;;;;;;;;;10586298;28;20370;-65
2022/11/09 05:28:01;;;;;;;;;;;;;;;;;;10586558;28;19923;-64
2022/11/09 05:33:03;;;;;;;;;;;;;;;;;;10586343;28;19923;-64
2022/11/09 05:38:07;;;;;;;;;;;;;;;;;;10585517;28;19949;-64
2022/11/09 05:43:09;;;;;;;;;;;;;;;;;;10585354;28;19988;-64
2022/11/09 05:48:11;;;;;;;;;;;;;;;;;;10584659;28;19950;-64
2022/11/09 05:53:13;;;;;;;;;;;;;;;;;;10585529;28;19924;-64
2022/11/09 05:58:15;;;;;;;;;;;;;;;;;;10584576;28;20369;-64
2022/11/09 06:03:17;;;;;;;;;;;;;;;;;;10584352;28;19964;-64
2022/11/09 06:08:20;;;;;;;;;;;;;;;;;;10584242;28;19924;-64
2022/11/09 06:13:22;;;;;;;;;;;;;;;;;;10566737;28;19977;-64
2022/11/09 06:18:24;;;;;;;;;;;;;;;;;;10583765;28;19992;-64
2022/11/09 06:23:26;;;;;;;;;;;;;;;;;;10584364;28;19927;-64
2022/11/09 06:28:28;;;;;;;;;;;;;;;;;;10583548;28;19931;-65
2022/11/09 06:33:30;;;;;;;;;;;;;;;;;;10583420;28;19980;-65
2022/11/09 06:38:32;;;;;;;;;;;;;;;;;;10583083;28;19989;-65
2022/11/09 06:43:35;;;;;;;;;;;;;;;;;;10583646;28;19931;-65
2022/11/09 06:48:37;;;;;;;;;;;;;;;;;;10582805;28;19976;-65
2022/11/09 06:53:40;;;;;;;;;;;;;;;;;;10565334;28;19972;-65
2022/11/09 06:58:42;;;;;;;;;;;;;;;;;;10583029;28;19981;-71
2022/11/09 07:03:44;;;;;;;;;;;;;;;;;;10581959;28;20321;-71
2022/11/09 07:08:46;;;;;;;;;;;;;;;;;;10582943;28;19923;-71
2022/11/09 07:13:48;;;;;;;;;;;;;;;;;;10583033;28;19924;-72
2022/11/09 07:18:54;;;;;;;;;;;;;;;;;;10581242;28;20042;-71
2022/11/09 07:23:56;;;;;;;;;;;;;;;;;;10582635;28;19977;-71
2022/11/09 07:28:58;;;;;;;;;;;;;;;;;;10581958;28;20332;-71
2022/11/09 07:34:03;;;;;;;;;;;;;;;;;;10582436;28;19977;-71
2022/11/09 07:39:05;;;;;;;;;;;;;;;;;;10564219;28;19924;-71
2022/11/09 07:44:08;;;;;;;;;;;;;;;;;;10581586;28;19980;-71
2022/11/09 07:49:10;;;;;;;;;;;;;;;;;;10582098;28;19969;-72
2022/11/09 07:54:12;;;;;;;;;;;;;;;;;;10582011;28;19981;-72
2022/11/09 07:59:14;;;;;;;;;;;;;;;;;;10581178;28;19996;-71
2022/11/09 08:04:16;;;;;;;;;;;;;;;;;;10580983;28;19931;-72
2022/11/09 08:09:18;;;;;;;;;;;;;;;;;;10581096;28;19927;-72
2022/11/09 08:14:20;;;;;;;;;;;;;;;;;;10586928;28;20312;-72
2022/11/09 08:19:22;;;;;;;;;;;;;;;;;;10588662;28;20294;-72
2022/11/09 08:24:24;;;;;;;;;;;;;;;;;;10589237;28;19924;-72
2022/11/09 08:29:26;;;;;;;;;;;;;;;;;;10588357;28;19927;-73
2022/11/09 08:34:28;;;;;;;;;;;;;;;;;;10588806;28;19927;-73
2022/11/09 08:39:30;;;;;;;;;;;;;;;;;;10588493;28;19985;-73
2022/11/09 08:44:32;;;;;;;;;;;;;;;;;;10588936;28;19928;-73
2022/11/09 08:49:35;;;;;;;;;;;;;;;;;;10587608;28;19927;-73
2022/11/09 08:54:37;;;;;;;;;;;;;;;;;;10588011;28;19952;-73
2022/11/09 08:59:39;;;;;;;;;;;;;;;;;;10587125;28;20431;-73
2022/11/09 09:04:41;;;;;;;;;;;;;;;;;;10587443;28;19923;-74
2022/11/09 09:09:43;;;;;;;;;;;;;;;;;;10586845;28;19973;-74
2022/11/09 09:14:45;;;;;;;;;;;;;;;;;;10586652;28;19924;-75
2022/11/09 09:19:47;;;;;;;;;;;;;;;;;;10586945;28;19954;-74
2022/11/09 09:24:51;;;;;;;;;;;;;;;;;;10586141;28;19972;-74
2022/11/09 09:29:53;;;;;;;;;;;;;;;;;;10585990;28;20439;-74
2022/11/09 09:34:55;;;;;;;;;;;;;;;;;;10586470;28;19973;-74
2022/11/09 09:39:57;;;;;;;;;;;;;;;;;;10585464;28;20370;-74
2022/11/09 09:44:59;;;;;;;;;;;;;;;;;;10585989;28;19924;-74
2022/11/09 09:50:01;;;;;;;;;;;;;;;;;;10567829;28;19924;-74
2022/11/09 09:55:03;;;;;;;;;;;;;;;;;;10584938;28;20402;-75
2022/11/09 10:00:05;;;;;;;;;;;;;;;;;;10584717;28;19927;-76
2022/11/09 10:05:07;;;;;;;;;;;;;;;;;;10584751;28;19973;-75
2022/11/09 10:10:09;;;;;;;;;;;;;;;;;;10584385;28;19927;-75
2022/11/09 10:15:12;;;;;;;;;;;;;;;;;;10585236;28;19924;-75
2022/11/09 10:20:14;;;;;;;;;;;;;;;;;;10589770;22;19927;-71
2022/11/09 10:25:16;;;;;;;;;;;;;;;;;;10583789;28;20066;-71
2022/11/09 10:30:33;;;;;;;;;;;;;;;;;;10583593;28;20010;-71
2022/11/09 10:35:35;;;;;;;;;;;;;;;;;;10584058;28;19969;-71
2022/11/09 10:40:37;;;;;;;;;;;;;;;;;;10583781;28;19923;-71
2022/11/09 10:45:39;;;;;;;;;;;;;;;;;;10583829;28;19970;-70
2022/11/09 10:50:41;;;;;;;;;;;;;;;;;;10565988;28;19928;-70
2022/11/09 10:55:43;;;;;;;;;;;;;;;;;;10564732;28;19972;-70
2022/11/09 11:00:46;;;;;;;;;;;;;;;;;;10582675;28;19928;-70
2022/11/09 11:05:48;;;;;;;;;;;;;;;;;;10582398;28;19924;-70
2022/11/09 11:10:51;;;;;;;;;;;;;;;;;;10564945;28;19973;-70
2022/11/09 11:16:03;;;;;;;;;;;;;;;;;;10582835;28;20022;-70
2022/11/09 11:21:05;;;;;;;;;;;;;;;;;;10582376;28;19923;-70
2022/11/09 11:26:07;;;;;;;;;;;;;;;;;;10581985;28;19923;-70
2022/11/09 11:31:09;;;;;;;;;;;;;;;;;;10582529;28;19928;-70
2022/11/09 11:36:11;;;;;;;;;;;;;;;;;;10582395;28;19953;-69
2022/11/09 11:41:13;;;;;;;;;;;;;;;;;;10581592;28;19924;-65
2022/11/09 11:46:15;;;;;;;;;;;;;;;;;;10582755;28;19981;-64
2022/11/09 11:51:17;;;;;;;;;;;;;;;;;;10589998;28;20427;-64
2022/11/09 11:56:19;;;;;;;;;;;;;;;;;;10590060;28;19969;-64
2022/11/09 12:01:21;;;;;;;;;;;;;;;;;;10589508;28;19973;-64
2022/11/09 12:06:23;;;;;;;;;;;;;;;;;;10589370;28;19923;-64
2022/11/09 12:11:25;;;;;;;;;;;;;;;;;;10589848;28;19924;-64
2022/11/09 12:16:27;;;;;;;;;;;;;;;;;;10589691;28;19928;-64
2022/11/09 12:21:29;;;;;;;;;;;;;;;;;;10587700;28;19924;-65
2022/11/09 12:26:31;;;;;;;;;;;;;;;;;;10589742;28;19924;-64
2022/11/09 12:31:33;;;;;;;;;;;;;;;;;;10589396;28;19924;-64
2022/11/09 12:36:35;;;;;;;;;;;;;;;;;;10588436;28;19976;-64
2022/11/09 12:41:37;;;;;;;;;;;;;;;;;;10588556;28;19973;-64
2022/11/09 12:46:40;;;;;;;;;;;;;;;;;;10588445;28;19969;-64
2022/11/09 12:51:42;;;;;;;;;;;;;;;;;;10588174;28;19924;-64
2022/11/09 12:56:44;;;;;;;;;;;;;;;;;;10587960;28;19927;-64
2022/11/09 13:01:46;;;;;;;;;;;;;;;;;;10586553;28;19977;-64
2022/11/09 13:06:48;;;;;;;;;;;;;;;;;;10587235;28;19924;-64
2022/11/09 13:11:50;;;;;;;;;;;;;;;;;;10587267;28;20283;-64
2022/11/09 13:16:54;;;;;;;;;;;;;;;;;;10587202;28;19923;-64
2022/11/09 13:21:56;;;;;;;;;;;;;;;;;;10582599;28;19924;-66
2022/11/09 13:26:58;;;;;;;;;;;;;;;;;;10565356;28;19923;-64
2022/11/09 13:32:00;;;;;;;;;;;;;;;;;;10585985;28;19977;-65
2022/11/09 13:37:03;;;;;;;;;;;;;;;;;;10586314;28;19923;-64
2022/11/09 13:42:05;;;;;;;;;;;;;;;;;;10585858;28;19923;-64
2022/11/09 13:47:07;;;;;;;;;;;;;;;;;;10585970;28;19923;-64
2022/11/09 13:52:09;;;;;;;;;;;;;;;;;;10566928;28;20415;-64
2022/11/09 13:57:11;;;;;;;;;;;;;;;;;;10585570;28;19924;-64
2022/11/09 14:02:13;;;;;;;;;;;;;;;;;;10585397;28;19931;-64
2022/11/09 14:07:15;;;;;;;;;;;;;;;;;;10585137;28;19923;-64
2022/11/09 14:12:17;;;;;;;;;;;;;;;;;;10583728;28;20346;-64
2022/11/09 14:17:19;;;;;;;;;;;;;;;;;;10583780;28;20306;-64
2022/11/09 14:22:21;;;;;;;;;;;;;;;;;;10583772;28;19973;-64
2022/11/09 14:27:24;;;;;;;;;;;;;;;;;;10584417;28;19957;-64
2022/11/09 14:32:26;;;;;;;;;;;;;;;;;;10584972;28;19928;-64
2022/11/09 14:37:28;;;;;;;;;;;;;;;;;;10583403;28;20317;-64
2022/11/09 14:42:30;;;;;;;;;;;;;;;;;;10583774;28;19977;-64
2022/11/09 14:47:32;;;;;;;;;;;;;;;;;;10582950;28;19989;-63
2022/11/09 14:52:34;;;;;;;;;;;;;;;;;;10582824;28;19928;-63
2022/11/09 14:57:36;;;;;;;;;;;;;;;;;;10582710;28;19930;-63
2022/11/09 15:02:38;;;;;;;;;;;;;;;;;;10583061;28;19924;-63
2022/11/09 15:07:40;;;;;;;;;;;;;;;;;;10582457;28;19924;-63
2022/11/09 15:12:42;;;;;;;;;;;;;;;;;;10582967;28;19969;-63
2022/11/09 15:17:47;;;;;;;;;;;;;;;;;;10582117;28;20354;-63
2022/11/09 15:22:49;;;;;;;;;;;;;;;;;;10581610;28;20313;-63
2022/11/09 15:27:51;;;;;;;;;;;;;;;;;;10582365;28;19969;-63
2022/11/09 15:32:53;;;;;;;;;;;;;;;;;;10582482;28;19969;-63
2022/11/09 15:37:55;;;;;;;;;;;;;;;;;;10581732;28;19927;-63
2022/11/09 15:42:57;;;;;;;;;;;;;;;;;;10582251;28;19924;-63
2022/11/09 15:47:59;;;;;;;;;;;;;;;;;;10581640;28;20287;-63
2022/11/09 15:53:01;;;;;;;;;;;;;;;;;;10582130;28;19924;-63
2022/11/09 15:58:04;;;;;;;;;;;;;;;;;;10581384;28;19953;-63
2022/11/09 16:03:06;;;;;;;;;;;;;;;;;;10581897;28;19973;-63
2022/11/09 16:08:08;;;;;;;;;;;;;;;;;;10580105;28;20324;-63
2022/11/09 16:13:10;;;;;;;;;;;;;;;;;;10581050;28;19985;-63
2022/11/09 16:18:12;;;;;;;;;;;;;;;;;;10581366;28;19924;-63
2022/11/09 16:23:14;;;;;;;;;;;;;;;;;;10580802;28;20435;-63
2022/11/09 16:28:17;;;;;;;;;;;;;;;;;;10579634;28;19980;-63
2022/11/09 16:33:20;;;;;;;;;;;;;;;;;;10580546;28;19967;-63
2022/11/09 16:38:22;;;;;;;;;;;;;;;;;;10588359;28;19924;-63
2022/11/09 16:43:24;;;;;;;;;;;;;;;;;;10588877;28;20007;-63
2022/11/09 16:48:26;;;;;;;;;;;;;;;;;;10588360;28;19967;-63
2022/11/09 16:53:28;;;;;;;;;;;;;;;;;;10569541;28;19928;-63
2022/11/09 16:58:31;;;;;;;;;;;;;;;;;;10587390;28;19923;-63
2022/11/09 17:03:33;;;;;;;;;;;;;;;;;;10586806;28;19927;-63
2022/11/09 17:08:35;;;;;;;;;;;;;;;;;;10586794;28;20325;-63
2022/11/09 17:13:37;;;;;;;;;;;;;;;;;;10587401;28;19924;-63
2022/11/09 17:18:39;;;;;;;;;;;;;;;;;;10586922;28;19928;-63
2022/11/09 17:23:41;;;;;;;;;;;;;;;;;;10586238;28;19924;-63
2022/11/09 17:28:43;;;;;;;;;;;;;;;;;;10586690;28;19923;-64
2022/11/09 17:33:45;;;;;;;;;;;;;;;;;;10586157;28;19988;-63
2022/11/09 17:38:47;;;;;;;;;;;;;;;;;;10586129;28;19927;-63
2022/11/09 17:43:49;;;;;;;;;;;;;;;;;;10584925;28;19923;-64
2022/11/09 17:48:51;;;;;;;;;;;;;;;;;;10585981;28;19969;-63
2022/11/09 17:53:53;;;;;;;;;;;;;;;;;;10585104;28;20370;-63
2022/11/09 17:58:55;;;;;;;;;;;;;;;;;;10585492;28;19981;-64
2022/11/09 18:03:57;;;;;;;;;;;;;;;;;;10584751;28;20259;-64
2022/11/09 18:09:02;;;;;;;;;;;;;;;;;;10584149;28;20374;-64
2022/11/09 18:14:24;;;;;;;;;;;;;;;;;;10569990;28;19971;-64
2022/11/09 18:19:28;;;;;;;;;;;;;;;;;;10583608;28;21564;-64
2022/11/09 18:24:31;;;;;;;;;;;;;;;;;;10583843;28;20367;-63
2022/11/09 18:29:33;;;;;;;;;;;;;;;;;;10583709;28;20427;-63
2022/11/09 18:34:36;;;;;;;;;;;;;;;;;;10584672;28;19977;-63
2022/11/09 18:39:38;;;;;;;;;;;;;;;;;;10583521;28;19977;-64
2022/11/09 18:44:40;;;;;;;;;;;;;;;;;;10583063;28;19924;-63
2022/11/09 18:49:42;;;;;;;;;;;;;;;;;;10583620;28;19953;-63
2022/11/09 18:54:44;;;;;;;;;;;;;;;;;;10582344;28;19927;-63
2022/11/09 18:59:46;;;;;;;;;;;;;;;;;;10581705;28;19980;-63
2022/11/09 19:04:48;;;;;;;;;;;;;;;;;;10583168;28;19977;-63
2022/11/09 19:09:50;;;;;;;;;;;;;;;;;;10582001;28;19977;-63
2022/11/09 19:14:57;;;;;;;;;;;;;;;;;;10581103;28;19924;-63
2022/11/09 19:19:59;;;;;;;;;;;;;;;;;;10582533;28;19924;-63
2022/11/09 19:25:01;;;;;;;;;;;;;;;;;;10582792;28;19965;-63
2022/11/09 19:30:03;;;;;;;;;;;;;;;;;;10581882;28;19927;-63
2022/11/09 19:35:10;;;;;;;;;;;;;;;;;;10582518;28;19989;-64
2022/11/09 19:40:12;;;;;;;;;;;;;;;;;;10581959;28;19924;-63
2022/11/09 19:45:14;;;;;;;;;;;;;;;;;;10582319;28;19924;-63
2022/11/09 19:50:16;;;;;;;;;;;;;;;;;;10573512;28;19997;-63
2022/11/09 19:55:18;;;;;;;;;;;;;;;;;;10562904;28;19972;-63
2022/11/09 20:00:20;;;;;;;;;;;;;;;;;;10581878;28;19970;-63
2022/11/09 20:05:22;;;;;;;;;;;;;;;;;;10581601;28;19924;-64
2022/11/09 20:10:24;;;;;;;;;;;;;;;;;;10586833;28;20420;-63
2022/11/09 20:15:26;;;;;;;;;;;;;;;;;;10589482;28;19927;-63
2022/11/09 20:20:28;;;;;;;;;;;;;;;;;;10588981;28;19928;-63
2022/11/09 20:25:31;;;;;;;;;;;;;;;;;;10589075;28;19924;-63
2022/11/09 20:30:33;;;;;;;;;;;;;;;;;;10589193;28;19924;-63
2022/11/09 20:35:35;;;;;;;;;;;;;;;;;;10589015;28;19969;-63
2022/11/09 20:40:37;;;;;;;;;;;;;;;;;;10587671;28;20336;-64
2022/11/09 20:45:39;;;;;;;;;;;;;;;;;;10588626;28;19980;-63
2022/11/09 20:50:41;;;;;;;;;;;;;;;;;;10587423;28;19924;-63
2022/11/09 20:55:43;;;;;;;;;;;;;;;;;;10588647;28;19927;-63
2022/11/09 21:00:45;;;;;;;;;;;;;;;;;;10587916;28;19927;-63
2022/11/09 21:05:47;;;;;;;;;;;;;;;;;;10587485;28;19955;-63
2022/11/09 21:10:53;;;;;;;;;;;;;;;;;;10587551;28;19930;-63
2022/11/09 21:15:55;;;;;;;;;;;;;;;;;;10587347;28;19977;-63
2022/11/09 21:20:57;;;;;;;;;;;;;;;;;;10585255;28;20263;-63
2022/11/09 21:31:20;;;;;;;;;;;;;;;;;;10586846;28;19923;-63
2022/11/09 21:36:22;;;;;;;;;;;;;;;;;;10567947;28;20267;-64
2022/11/09 21:41:36;;;;;;;;;;;;;;;;;;10585689;28;19924;-64
2022/11/09 21:46:38;;;;;;;;;;;;;;;;;;10568101;28;19973;-63
2022/11/09 21:51:40;;;;;;;;;;;;;;;;;;10585935;28;19927;-64
2022/11/09 21:56:42;;;;;;;;;;;;;;;;;;10585773;28;19923;-64
2022/11/09 22:01:44;;;;;;;;;;;;;;;;;;10584868;28;20263;-63
2022/11/09 22:06:47;;;;;;;;;;;;;;;;;;10584738;28;19923;-63
2022/11/09 22:17:11;;;;;;;;;;;;;;;;;;10583720;28;19972;-64
2022/11/09 22:22:13;;;;;;;;;;;;;;;;;;10583975;28;19927;-63
2022/11/09 22:27:15;;;;;;;;;;;;;;;;;;10583907;28;20321;-63
2022/11/09 22:32:17;;;;;;;;;;;;;;;;;;10595386;22;19924;-67
2022/11/09 22:37:19;;;;;;;;;;;;;;;;;;10584251;28;19924;-67
2022/11/09 22:42:21;;;;;;;;;;;;;;;;;;10583340;28;20355;-67
2022/11/09 22:47:23;;;;;;;;;;;;;;;;;;10583858;28;19981;-66
2022/11/09 22:52:25;;;;;;;;;;;;;;;;;;10582997;28;20373;-68
2022/11/09 22:57:27;;;;;;;;;;;;;;;;;;10583834;28;19977;-68
2022/11/09 23:02:29;;;;;;;;;;;;;;;;;;10583149;28;20374;-69
2022/11/09 23:07:31;;;;;;;;;;;;;;;;;;10582554;28;19989;-68
2022/11/09 23:12:33;;;;;;;;;;;;;;;;;;10583072;28;19973;-68
2022/11/09 23:22:56;;;;;;;;;;;;;;;;;;10582701;28;19924;-68
2022/11/09 23:27:58;;;;;;;;;;;;;;;;;;10582023;28;19973;-69
2022/11/09 23:33:00;;;;;;;;;;;;;;;;;;10581676;28;19928;-69
2022/11/09 23:38:02;;;;;;;;;;;;;;;;;;10582443;28;19924;-68
2022/11/09 23:43:04;;;;;;;;;;;;;;;;;;10583587;28;19992;-68
2022/11/09 23:48:06;;;;;;;;;;;;;;;;;;10590926;28;19927;-68
2022/11/09 23:53:09;;;;;;;;;;;;;;;;;;10590616;28;20328;-68
2022/11/09 23:58:12;;;;;;;;;;;;;;;;;;10590539;28;19924;-68
